sensor_id;sensor_type;location;lat;lon;timestamp;P1;durP1;ratioP1;P2;durP2;ratioP2
4986;SDS011;12674;51.500;7.552;2023-02-04T00:00:19;42.33;;;6.83;;
4986;SDS011;12674;51.500;7.552;2023-02-04T00:02:23;32.93;;;6.87;;
4986;SDS011;12674;51.500;7.552;2023-02-04T00:04:26;27.47;;;5.10;;
4986;SDS011;12674;51.500;7.552;2023-02-04T00:06:29;25.83;;;5.27;;
4986;SDS011;12674;51.500;7.552;2023-02-04T00:08:32;34.73;;;6.00;;
4986;SDS011;12674;51.500;7.552;2023-02-04T00:10:35;34.07;;;6.50;;
4986;SDS011;12674;51.500;7.552;2023-02-04T00:12:39;31.77;;;5.30;;
4986;SDS011;12674;51.500;7.552;2023-02-04T00:14:42;30.43;;;5.37;;
4986;SDS011;12674;51.500;7.552;2023-02-04T00:16:46;33.33;;;6.60;;
4986;SDS011;12674;51.500;7.552;2023-02-04T00:18:49;41.50;;;7.00;;
4986;SDS011;12674;51.500;7.552;2023-02-04T00:20:52;33.03;;;6.07;;
4986;SDS011;12674;51.500;7.552;2023-02-04T00:22:55;35.77;;;5.83;;
4986;SDS011;12674;51.500;7.552;2023-02-04T00:24:57;30.67;;;5.70;;
4986;SDS011;12674;51.500;7.552;2023-02-04T00:27:00;29.40;;;5.20;;
4986;SDS011;12674;51.500;7.552;2023-02-04T00:29:03;24.93;;;5.10;;
4986;SDS011;12674;51.500;7.552;2023-02-04T00:31:07;26.83;;;5.67;;
4986;SDS011;12674;51.500;7.552;2023-02-04T00:33:11;30.17;;;6.83;;
4986;SDS011;12674;51.500;7.552;2023-02-04T00:35:16;33.43;;;5.23;;
4986;SDS011;12674;51.500;7.552;2023-02-04T00:37:19;38.73;;;6.10;;
4986;SDS011;12674;51.500;7.552;2023-02-04T00:39:22;39.17;;;5.87;;
4986;SDS011;12674;51.500;7.552;2023-02-04T00:41:25;26.33;;;4.70;;
4986;SDS011;12674;51.500;7.552;2023-02-04T00:43:28;37.43;;;4.97;;
4986;SDS011;12674;51.500;7.552;2023-02-04T00:45:31;28.37;;;5.73;;
4986;SDS011;12674;51.500;7.552;2023-02-04T00:47:34;39.17;;;6.47;;
4986;SDS011;12674;51.500;7.552;2023-02-04T00:49:38;30.63;;;5.90;;
4986;SDS011;12674;51.500;7.552;2023-02-04T00:51:41;36.53;;;5.40;;
4986;SDS011;12674;51.500;7.552;2023-02-04T00:53:46;37.17;;;6.40;;
4986;SDS011;12674;51.500;7.552;2023-02-04T00:55:49;26.43;;;5.40;;
4986;SDS011;12674;51.500;7.552;2023-02-04T00:57:52;37.17;;;6.17;;
4986;SDS011;12674;51.500;7.552;2023-02-04T00:59:55;33.70;;;5.80;;
4986;SDS011;12674;51.500;7.552;2023-02-04T01:01:58;36.67;;;7.43;;
4986;SDS011;12674;51.500;7.552;2023-02-04T01:04:02;38.03;;;6.70;;
4986;SDS011;12674;51.500;7.552;2023-02-04T01:06:07;32.77;;;5.67;;
4986;SDS011;12674;51.500;7.552;2023-02-04T01:08:10;41.77;;;5.50;;
4986;SDS011;12674;51.500;7.552;2023-02-04T01:10:13;32.20;;;6.93;;
4986;SDS011;12674;51.500;7.552;2023-02-04T01:12:16;24.20;;;6.30;;
4986;SDS011;12674;51.500;7.552;2023-02-04T01:14:19;24.77;;;4.80;;
4986;SDS011;12674;51.500;7.552;2023-02-04T01:16:22;29.83;;;6.17;;
4986;SDS011;12674;51.500;7.552;2023-02-04T01:18:26;35.00;;;6.70;;
4986;SDS011;12674;51.500;7.552;2023-02-04T01:20:28;32.23;;;5.77;;
4986;SDS011;12674;51.500;7.552;2023-02-04T01:22:33;29.93;;;6.13;;
4986;SDS011;12674;51.500;7.552;2023-02-04T01:24:36;31.53;;;5.07;;
4986;SDS011;12674;51.500;7.552;2023-02-04T01:26:57;31.57;;;5.33;;
4986;SDS011;12674;51.500;7.552;2023-02-04T01:29:00;31.23;;;5.83;;
4986;SDS011;12674;51.500;7.552;2023-02-04T01:31:03;28.90;;;5.33;;
4986;SDS011;12674;51.500;7.552;2023-02-04T01:33:06;35.77;;;5.67;;
4986;SDS011;12674;51.500;7.552;2023-02-04T01:35:09;24.10;;;4.57;;
4986;SDS011;12674;51.500;7.552;2023-02-04T01:37:12;28.23;;;4.83;;
4986;SDS011;12674;51.500;7.552;2023-02-04T01:39:16;39.90;;;7.10;;
4986;SDS011;12674;51.500;7.552;2023-02-04T01:41:20;27.27;;;4.87;;
4986;SDS011;12674;51.500;7.552;2023-02-04T01:43:23;34.30;;;5.53;;
4986;SDS011;12674;51.500;7.552;2023-02-04T01:45:26;30.63;;;5.40;;
4986;SDS011;12674;51.500;7.552;2023-02-04T01:47:31;41.10;;;6.60;;
4986;SDS011;12674;51.500;7.552;2023-02-04T01:49:34;35.10;;;5.87;;
4986;SDS011;12674;51.500;7.552;2023-02-04T01:51:36;37.53;;;4.87;;
4986;SDS011;12674;51.500;7.552;2023-02-04T01:53:40;32.47;;;5.27;;
4986;SDS011;12674;51.500;7.552;2023-02-04T01:55:44;47.73;;;6.87;;
4986;SDS011;12674;51.500;7.552;2023-02-04T01:57:47;30.40;;;5.93;;
4986;SDS011;12674;51.500;7.552;2023-02-04T01:59:53;41.23;;;6.20;;
4986;SDS011;12674;51.500;7.552;2023-02-04T02:01:57;31.83;;;5.67;;
4986;SDS011;12674;51.500;7.552;2023-02-04T02:04:00;27.93;;;5.33;;
4986;SDS011;12674;51.500;7.552;2023-02-04T02:06:03;43.03;;;5.67;;
4986;SDS011;12674;51.500;7.552;2023-02-04T02:08:07;30.20;;;6.87;;
4986;SDS011;12674;51.500;7.552;2023-02-04T02:10:11;34.43;;;6.80;;
4986;SDS011;12674;51.500;7.552;2023-02-04T02:12:17;28.20;;;4.80;;
4986;SDS011;12674;51.500;7.552;2023-02-04T02:14:20;43.60;;;6.47;;
4986;SDS011;12674;51.500;7.552;2023-02-04T02:16:24;37.30;;;6.53;;
4986;SDS011;12674;51.500;7.552;2023-02-04T02:18:27;37.80;;;5.70;;
4986;SDS011;12674;51.500;7.552;2023-02-04T02:20:30;43.63;;;6.27;;
4986;SDS011;12674;51.500;7.552;2023-02-04T02:22:34;26.13;;;5.00;;
4986;SDS011;12674;51.500;7.552;2023-02-04T02:24:43;24.27;;;4.63;;
4986;SDS011;12674;51.500;7.552;2023-02-04T02:26:45;33.73;;;5.17;;
4986;SDS011;12674;51.500;7.552;2023-02-04T02:28:48;39.50;;;6.40;;
4986;SDS011;12674;51.500;7.552;2023-02-04T02:30:52;35.20;;;6.17;;
4986;SDS011;12674;51.500;7.552;2023-02-04T02:32:55;40.00;;;5.13;;
4986;SDS011;12674;51.500;7.552;2023-02-04T02:34:58;31.13;;;5.80;;
4986;SDS011;12674;51.500;7.552;2023-02-04T02:37:02;31.40;;;6.07;;
4986;SDS011;12674;51.500;7.552;2023-02-04T02:39:05;33.07;;;6.43;;
4986;SDS011;12674;51.500;7.552;2023-02-04T02:41:09;37.50;;;5.70;;
4986;SDS011;12674;51.500;7.552;2023-02-04T02:43:13;40.90;;;6.43;;
4986;SDS011;12674;51.500;7.552;2023-02-04T02:45:19;33.60;;;5.53;;
4986;SDS011;12674;51.500;7.552;2023-02-04T02:47:24;37.73;;;6.77;;
4986;SDS011;12674;51.500;7.552;2023-02-04T02:49:29;34.60;;;6.40;;
4986;SDS011;12674;51.500;7.552;2023-02-04T02:51:33;32.13;;;5.53;;
4986;SDS011;12674;51.500;7.552;2023-02-04T02:53:37;36.07;;;5.67;;
4986;SDS011;12674;51.500;7.552;2023-02-04T02:55:40;31.90;;;5.63;;
4986;SDS011;12674;51.500;7.552;2023-02-04T02:57:45;34.27;;;5.57;;
4986;SDS011;12674;51.500;7.552;2023-02-04T02:59:49;38.57;;;6.53;;
4986;SDS011;12674;51.500;7.552;2023-02-04T03:01:52;32.30;;;5.47;;
4986;SDS011;12674;51.500;7.552;2023-02-04T03:03:59;28.60;;;4.87;;
4986;SDS011;12674;51.500;7.552;2023-02-04T03:06:03;33.67;;;5.23;;
4986;SDS011;12674;51.500;7.552;2023-02-04T03:08:08;27.40;;;7.20;;
4986;SDS011;12674;51.500;7.552;2023-02-04T03:12:15;37.43;;;5.93;;
4986;SDS011;12674;51.500;7.552;2023-02-04T03:14:19;33.47;;;5.57;;
4986;SDS011;12674;51.500;7.552;2023-02-04T03:16:22;28.90;;;5.33;;
4986;SDS011;12674;51.500;7.552;2023-02-04T03:18:27;33.00;;;5.80;;
4986;SDS011;12674;51.500;7.552;2023-02-04T03:20:30;35.40;;;6.03;;
4986;SDS011;12674;51.500;7.552;2023-02-04T03:22:34;32.00;;;6.37;;
4986;SDS011;12674;51.500;7.552;2023-02-04T03:24:37;37.70;;;6.20;;
4986;SDS011;12674;51.500;7.552;2023-02-04T03:26:40;40.60;;;7.50;;
4986;SDS011;12674;51.500;7.552;2023-02-04T03:28:45;37.90;;;7.33;;
4986;SDS011;12674;51.500;7.552;2023-02-04T03:30:49;31.90;;;5.63;;
4986;SDS011;12674;51.500;7.552;2023-02-04T03:32:57;47.97;;;6.37;;
4986;SDS011;12674;51.500;7.552;2023-02-04T03:35:00;38.50;;;6.77;;
4986;SDS011;12674;51.500;7.552;2023-02-04T03:37:02;41.00;;;5.73;;
4986;SDS011;12674;51.500;7.552;2023-02-04T03:39:05;35.20;;;5.93;;
4986;SDS011;12674;51.500;7.552;2023-02-04T03:41:08;38.77;;;6.37;;
4986;SDS011;12674;51.500;7.552;2023-02-04T03:43:11;31.83;;;5.70;;
4986;SDS011;12674;51.500;7.552;2023-02-04T03:45:14;37.33;;;5.80;;
4986;SDS011;12674;51.500;7.552;2023-02-04T03:47:18;26.87;;;4.57;;
4986;SDS011;12674;51.500;7.552;2023-02-04T03:49:21;30.67;;;5.73;;
4986;SDS011;12674;51.500;7.552;2023-02-04T03:51:24;40.33;;;5.57;;
4986;SDS011;12674;51.500;7.552;2023-02-04T03:53:27;38.47;;;6.83;;
4986;SDS011;12674;51.500;7.552;2023-02-04T03:55:29;34.03;;;4.80;;
4986;SDS011;12674;51.500;7.552;2023-02-04T03:57:33;32.57;;;5.33;;
4986;SDS011;12674;51.500;7.552;2023-02-04T03:59:36;29.23;;;5.60;;
4986;SDS011;12674;51.500;7.552;2023-02-04T04:01:39;38.00;;;7.07;;
4986;SDS011;12674;51.500;7.552;2023-02-04T04:03:43;28.40;;;5.30;;
4986;SDS011;12674;51.500;7.552;2023-02-04T04:05:46;27.63;;;5.83;;
4986;SDS011;12674;51.500;7.552;2023-02-04T04:07:49;42.23;;;6.73;;
4986;SDS011;12674;51.500;7.552;2023-02-04T04:09:52;21.70;;;4.77;;
4986;SDS011;12674;51.500;7.552;2023-02-04T04:11:54;34.60;;;6.20;;
4986;SDS011;12674;51.500;7.552;2023-02-04T04:13:57;29.77;;;5.47;;
4986;SDS011;12674;51.500;7.552;2023-02-04T04:16:01;26.40;;;4.83;;
4986;SDS011;12674;51.500;7.552;2023-02-04T04:18:05;35.33;;;6.57;;
4986;SDS011;12674;51.500;7.552;2023-02-04T04:20:10;39.17;;;7.07;;
4986;SDS011;12674;51.500;7.552;2023-02-04T04:22:14;55.37;;;7.53;;
4986;SDS011;12674;51.500;7.552;2023-02-04T04:24:16;33.50;;;5.17;;
4986;SDS011;12674;51.500;7.552;2023-02-04T04:26:19;33.60;;;5.90;;
4986;SDS011;12674;51.500;7.552;2023-02-04T04:28:22;30.60;;;5.43;;
4986;SDS011;12674;51.500;7.552;2023-02-04T04:30:25;23.70;;;6.40;;
4986;SDS011;12674;51.500;7.552;2023-02-04T04:32:28;32.53;;;5.07;;
4986;SDS011;12674;51.500;7.552;2023-02-04T04:34:31;35.03;;;5.30;;
4986;SDS011;12674;51.500;7.552;2023-02-04T04:36:35;28.80;;;5.63;;
4986;SDS011;12674;51.500;7.552;2023-02-04T04:38:38;42.33;;;6.53;;
4986;SDS011;12674;51.500;7.552;2023-02-04T04:40:41;44.03;;;5.90;;
4986;SDS011;12674;51.500;7.552;2023-02-04T04:42:44;30.60;;;5.90;;
4986;SDS011;12674;51.500;7.552;2023-02-04T04:44:46;34.07;;;5.70;;
4986;SDS011;12674;51.500;7.552;2023-02-04T04:46:49;39.97;;;6.10;;
4986;SDS011;12674;51.500;7.552;2023-02-04T04:48:52;45.10;;;5.73;;
4986;SDS011;12674;51.500;7.552;2023-02-04T04:50:55;29.57;;;5.30;;
4986;SDS011;12674;51.500;7.552;2023-02-04T04:53:00;46.47;;;6.47;;
4986;SDS011;12674;51.500;7.552;2023-02-04T04:55:03;37.07;;;7.50;;
4986;SDS011;12674;51.500;7.552;2023-02-04T04:57:06;35.67;;;5.57;;
4986;SDS011;12674;51.500;7.552;2023-02-04T04:59:09;30.13;;;5.53;;
4986;SDS011;12674;51.500;7.552;2023-02-04T05:01:12;39.17;;;6.20;;
4986;SDS011;12674;51.500;7.552;2023-02-04T05:03:15;35.93;;;5.07;;
4986;SDS011;12674;51.500;7.552;2023-02-04T05:05:18;35.17;;;6.70;;
4986;SDS011;12674;51.500;7.552;2023-02-04T05:07:21;40.63;;;7.60;;
4986;SDS011;12674;51.500;7.552;2023-02-04T05:09:25;45.23;;;7.73;;
4986;SDS011;12674;51.500;7.552;2023-02-04T05:11:28;27.37;;;4.90;;
4986;SDS011;12674;51.500;7.552;2023-02-04T05:13:31;35.73;;;6.10;;
4986;SDS011;12674;51.500;7.552;2023-02-04T05:15:34;39.57;;;6.13;;
4986;SDS011;12674;51.500;7.552;2023-02-04T05:17:37;47.17;;;7.17;;
4986;SDS011;12674;51.500;7.552;2023-02-04T05:19:39;45.53;;;6.37;;
4986;SDS011;12674;51.500;7.552;2023-02-04T05:21:42;30.03;;;5.30;;
4986;SDS011;12674;51.500;7.552;2023-02-04T05:23:45;42.63;;;7.20;;
4986;SDS011;12674;51.500;7.552;2023-02-04T05:25:49;47.50;;;7.20;;
4986;SDS011;12674;51.500;7.552;2023-02-04T05:27:52;27.47;;;4.97;;
4986;SDS011;12674;51.500;7.552;2023-02-04T05:29:55;28.87;;;4.67;;
4986;SDS011;12674;51.500;7.552;2023-02-04T05:31:58;27.13;;;5.23;;
4986;SDS011;12674;51.500;7.552;2023-02-04T05:34:02;45.73;;;5.50;;
4986;SDS011;12674;51.500;7.552;2023-02-04T05:36:05;33.53;;;6.20;;
4986;SDS011;12674;51.500;7.552;2023-02-04T05:38:08;38.33;;;5.10;;
4986;SDS011;12674;51.500;7.552;2023-02-04T05:40:12;47.10;;;7.47;;
4986;SDS011;12674;51.500;7.552;2023-02-04T05:42:16;42.40;;;6.07;;
4986;SDS011;12674;51.500;7.552;2023-02-04T05:44:19;50.27;;;6.83;;
4986;SDS011;12674;51.500;7.552;2023-02-04T05:46:22;44.57;;;8.17;;
4986;SDS011;12674;51.500;7.552;2023-02-04T05:48:25;40.23;;;7.10;;
4986;SDS011;12674;51.500;7.552;2023-02-04T05:50:28;38.97;;;6.00;;
4986;SDS011;12674;51.500;7.552;2023-02-04T05:52:41;39.47;;;5.93;;
4986;SDS011;12674;51.500;7.552;2023-02-04T05:54:44;38.40;;;5.03;;
4986;SDS011;12674;51.500;7.552;2023-02-04T05:56:47;35.00;;;5.70;;
4986;SDS011;12674;51.500;7.552;2023-02-04T05:58:53;22.53;;;5.57;;
4986;SDS011;12674;51.500;7.552;2023-02-04T06:00:56;25.53;;;5.30;;
4986;SDS011;12674;51.500;7.552;2023-02-04T06:02:59;37.93;;;5.90;;
4986;SDS011;12674;51.500;7.552;2023-02-04T06:05:02;40.90;;;6.50;;
4986;SDS011;12674;51.500;7.552;2023-02-04T06:07:05;28.83;;;5.00;;
4986;SDS011;12674;51.500;7.552;2023-02-04T06:09:08;40.67;;;7.97;;
4986;SDS011;12674;51.500;7.552;2023-02-04T06:11:11;40.77;;;5.57;;
4986;SDS011;12674;51.500;7.552;2023-02-04T06:13:14;34.03;;;6.40;;
4986;SDS011;12674;51.500;7.552;2023-02-04T06:15:18;47.80;;;8.20;;
4986;SDS011;12674;51.500;7.552;2023-02-04T06:17:21;34.93;;;5.43;;
4986;SDS011;12674;51.500;7.552;2023-02-04T06:19:24;43.23;;;5.97;;
4986;SDS011;12674;51.500;7.552;2023-02-04T06:21:27;40.93;;;6.60;;
4986;SDS011;12674;51.500;7.552;2023-02-04T06:23:30;35.50;;;6.43;;
4986;SDS011;12674;51.500;7.552;2023-02-04T06:25:34;44.97;;;6.00;;
4986;SDS011;12674;51.500;7.552;2023-02-04T06:27:37;35.30;;;7.67;;
4986;SDS011;12674;51.500;7.552;2023-02-04T06:29:40;40.47;;;6.03;;
4986;SDS011;12674;51.500;7.552;2023-02-04T06:31:45;22.67;;;5.70;;
4986;SDS011;12674;51.500;7.552;2023-02-04T06:33:49;40.70;;;7.00;;
4986;SDS011;12674;51.500;7.552;2023-02-04T06:35:52;37.83;;;6.57;;
4986;SDS011;12674;51.500;7.552;2023-02-04T06:37:55;40.43;;;6.37;;
4986;SDS011;12674;51.500;7.552;2023-02-04T06:39:58;25.67;;;5.70;;
4986;SDS011;12674;51.500;7.552;2023-02-04T06:42:01;34.23;;;5.83;;
4986;SDS011;12674;51.500;7.552;2023-02-04T06:44:04;36.70;;;5.83;;
4986;SDS011;12674;51.500;7.552;2023-02-04T06:46:07;28.23;;;5.77;;
4986;SDS011;12674;51.500;7.552;2023-02-04T06:48:11;38.43;;;6.10;;
4986;SDS011;12674;51.500;7.552;2023-02-04T06:50:14;35.13;;;5.57;;
4986;SDS011;12674;51.500;7.552;2023-02-04T06:52:19;48.97;;;5.80;;
4986;SDS011;12674;51.500;7.552;2023-02-04T06:54:22;36.70;;;6.33;;
4986;SDS011;12674;51.500;7.552;2023-02-04T06:56:24;28.53;;;5.40;;
4986;SDS011;12674;51.500;7.552;2023-02-04T06:58:30;46.03;;;6.47;;
4986;SDS011;12674;51.500;7.552;2023-02-04T07:00:32;37.23;;;5.47;;
4986;SDS011;12674;51.500;7.552;2023-02-04T07:02:36;35.53;;;6.33;;
4986;SDS011;12674;51.500;7.552;2023-02-04T07:04:41;39.17;;;5.90;;
4986;SDS011;12674;51.500;7.552;2023-02-04T07:06:47;48.50;;;6.60;;
4986;SDS011;12674;51.500;7.552;2023-02-04T07:08:50;38.77;;;5.93;;
4986;SDS011;12674;51.500;7.552;2023-02-04T07:10:53;42.43;;;7.03;;
4986;SDS011;12674;51.500;7.552;2023-02-04T07:12:56;35.83;;;6.50;;
4986;SDS011;12674;51.500;7.552;2023-02-04T07:14:59;35.73;;;5.80;;
4986;SDS011;12674;51.500;7.552;2023-02-04T07:17:02;28.00;;;6.07;;
4986;SDS011;12674;51.500;7.552;2023-02-04T07:19:05;28.83;;;4.97;;
4986;SDS011;12674;51.500;7.552;2023-02-04T07:21:09;33.83;;;5.20;;
4986;SDS011;12674;51.500;7.552;2023-02-04T07:23:12;35.07;;;6.80;;
4986;SDS011;12674;51.500;7.552;2023-02-04T07:25:15;30.93;;;5.90;;
4986;SDS011;12674;51.500;7.552;2023-02-04T07:27:18;30.23;;;5.20;;
4986;SDS011;12674;51.500;7.552;2023-02-04T07:29:21;50.77;;;7.03;;
4986;SDS011;12674;51.500;7.552;2023-02-04T07:31:26;38.47;;;7.77;;
4986;SDS011;12674;51.500;7.552;2023-02-04T07:33:29;23.83;;;4.90;;
4986;SDS011;12674;51.500;7.552;2023-02-04T07:35:32;47.43;;;6.50;;
4986;SDS011;12674;51.500;7.552;2023-02-04T07:37:36;37.30;;;6.97;;
4986;SDS011;12674;51.500;7.552;2023-02-04T07:39:39;37.73;;;6.90;;
4986;SDS011;12674;51.500;7.552;2023-02-04T07:41:42;40.13;;;6.53;;
4986;SDS011;12674;51.500;7.552;2023-02-04T07:43:47;43.87;;;7.43;;
4986;SDS011;12674;51.500;7.552;2023-02-04T07:45:50;44.67;;;6.67;;
4986;SDS011;12674;51.500;7.552;2023-02-04T07:47:52;33.57;;;6.27;;
4986;SDS011;12674;51.500;7.552;2023-02-04T07:49:55;38.10;;;6.40;;
4986;SDS011;12674;51.500;7.552;2023-02-04T07:51:58;50.03;;;7.07;;
4986;SDS011;12674;51.500;7.552;2023-02-04T07:54:02;39.20;;;7.13;;
4986;SDS011;12674;51.500;7.552;2023-02-04T07:56:06;34.80;;;6.20;;
4986;SDS011;12674;51.500;7.552;2023-02-04T07:58:09;53.33;;;7.20;;
4986;SDS011;12674;51.500;7.552;2023-02-04T08:00:12;58.60;;;7.70;;
4986;SDS011;12674;51.500;7.552;2023-02-04T08:02:16;38.47;;;7.10;;
4986;SDS011;12674;51.500;7.552;2023-02-04T08:04:19;43.33;;;6.83;;
4986;SDS011;12674;51.500;7.552;2023-02-04T08:06:22;44.90;;;6.50;;
4986;SDS011;12674;51.500;7.552;2023-02-04T08:08:25;40.40;;;7.10;;
4986;SDS011;12674;51.500;7.552;2023-02-04T08:10:29;34.23;;;6.77;;
4986;SDS011;12674;51.500;7.552;2023-02-04T08:12:33;30.77;;;5.70;;
4986;SDS011;12674;51.500;7.552;2023-02-04T08:14:35;44.67;;;7.00;;
4986;SDS011;12674;51.500;7.552;2023-02-04T08:16:38;43.33;;;7.97;;
4986;SDS011;12674;51.500;7.552;2023-02-04T08:18:41;36.70;;;6.13;;
4986;SDS011;12674;51.500;7.552;2023-02-04T08:20:44;50.70;;;7.93;;
4986;SDS011;12674;51.500;7.552;2023-02-04T08:22:48;44.83;;;6.20;;
4986;SDS011;12674;51.500;7.552;2023-02-04T08:24:50;43.27;;;7.63;;
4986;SDS011;12674;51.500;7.552;2023-02-04T08:26:55;41.03;;;7.50;;
4986;SDS011;12674;51.500;7.552;2023-02-04T08:28:58;39.50;;;6.87;;
4986;SDS011;12674;51.500;7.552;2023-02-04T08:31:01;43.00;;;7.80;;
4986;SDS011;12674;51.500;7.552;2023-02-04T08:33:04;49.77;;;7.70;;
4986;SDS011;12674;51.500;7.552;2023-02-04T08:35:07;36.53;;;6.37;;
4986;SDS011;12674;51.500;7.552;2023-02-04T08:37:10;45.53;;;6.30;;
4986;SDS011;12674;51.500;7.552;2023-02-04T08:39:13;46.47;;;7.13;;
4986;SDS011;12674;51.500;7.552;2023-02-04T08:41:16;45.47;;;6.40;;
4986;SDS011;12674;51.500;7.552;2023-02-04T08:43:20;41.37;;;6.50;;
4986;SDS011;12674;51.500;7.552;2023-02-04T08:45:23;40.10;;;7.87;;
4986;SDS011;12674;51.500;7.552;2023-02-04T08:47:26;39.27;;;6.43;;
4986;SDS011;12674;51.500;7.552;2023-02-04T08:49:29;43.60;;;6.77;;
4986;SDS011;12674;51.500;7.552;2023-02-04T08:51:31;51.33;;;7.80;;
4986;SDS011;12674;51.500;7.552;2023-02-04T08:53:34;55.50;;;9.50;;
4986;SDS011;12674;51.500;7.552;2023-02-04T08:55:45;34.53;;;6.60;;
4986;SDS011;12674;51.500;7.552;2023-02-04T08:57:48;38.80;;;6.20;;
4986;SDS011;12674;51.500;7.552;2023-02-04T08:59:52;50.10;;;6.90;;
4986;SDS011;12674;51.500;7.552;2023-02-04T09:01:55;46.83;;;7.67;;
4986;SDS011;12674;51.500;7.552;2023-02-04T09:03:58;53.73;;;9.20;;
4986;SDS011;12674;51.500;7.552;2023-02-04T09:06:01;33.77;;;7.37;;
4986;SDS011;12674;51.500;7.552;2023-02-04T09:08:04;56.00;;;7.83;;
4986;SDS011;12674;51.500;7.552;2023-02-04T09:10:07;63.10;;;7.50;;
4986;SDS011;12674;51.500;7.552;2023-02-04T09:12:10;45.40;;;8.00;;
4986;SDS011;12674;51.500;7.552;2023-02-04T09:14:13;41.13;;;8.10;;
4986;SDS011;12674;51.500;7.552;2023-02-04T09:16:17;50.57;;;8.37;;
4986;SDS011;12674;51.500;7.552;2023-02-04T09:18:20;44.20;;;8.10;;
4986;SDS011;12674;51.500;7.552;2023-02-04T09:20:25;42.67;;;7.30;;
4986;SDS011;12674;51.500;7.552;2023-02-04T09:22:29;39.13;;;7.50;;
4986;SDS011;12674;51.500;7.552;2023-02-04T09:24:32;58.73;;;8.17;;
4986;SDS011;12674;51.500;7.552;2023-02-04T09:26:35;40.03;;;7.17;;
4986;SDS011;12674;51.500;7.552;2023-02-04T09:28:38;42.80;;;7.80;;
4986;SDS011;12674;51.500;7.552;2023-02-04T09:30:41;40.03;;;8.23;;
4986;SDS011;12674;51.500;7.552;2023-02-04T09:32:46;46.70;;;10.43;;
4986;SDS011;12674;51.500;7.552;2023-02-04T09:34:49;40.13;;;9.50;;
4986;SDS011;12674;51.500;7.552;2023-02-04T09:36:52;33.23;;;8.60;;
4986;SDS011;12674;51.500;7.552;2023-02-04T09:38:55;40.17;;;9.43;;
4986;SDS011;12674;51.500;7.552;2023-02-04T09:40:58;40.00;;;7.93;;
4986;SDS011;12674;51.500;7.552;2023-02-04T09:43:03;42.70;;;8.80;;
4986;SDS011;12674;51.500;7.552;2023-02-04T09:45:08;38.00;;;8.00;;
4986;SDS011;12674;51.500;7.552;2023-02-04T09:47:11;36.70;;;7.73;;
4986;SDS011;12674;51.500;7.552;2023-02-04T09:49:17;41.10;;;7.03;;
4986;SDS011;12674;51.500;7.552;2023-02-04T09:51:21;47.47;;;7.00;;
4986;SDS011;12674;51.500;7.552;2023-02-04T09:53:25;57.03;;;9.63;;
4986;SDS011;12674;51.500;7.552;2023-02-04T09:55:29;46.33;;;8.20;;
4986;SDS011;12674;51.500;7.552;2023-02-04T09:57:34;36.90;;;7.50;;
4986;SDS011;12674;51.500;7.552;2023-02-04T09:59:36;37.73;;;8.60;;
4986;SDS011;12674;51.500;7.552;2023-02-04T10:01:39;46.33;;;8.70;;
4986;SDS011;12674;51.500;7.552;2023-02-04T10:03:43;43.30;;;7.97;;
4986;SDS011;12674;51.500;7.552;2023-02-04T10:05:49;48.97;;;9.67;;
4986;SDS011;12674;51.500;7.552;2023-02-04T10:07:53;38.50;;;7.43;;
4986;SDS011;12674;51.500;7.552;2023-02-04T10:09:55;39.33;;;7.40;;
4986;SDS011;12674;51.500;7.552;2023-02-04T10:11:59;49.47;;;8.17;;
4986;SDS011;12674;51.500;7.552;2023-02-04T10:14:01;39.43;;;8.07;;
4986;SDS011;12674;51.500;7.552;2023-02-04T10:16:07;36.90;;;9.70;;
4986;SDS011;12674;51.500;7.552;2023-02-04T10:18:16;41.57;;;9.33;;
4986;SDS011;12674;51.500;7.552;2023-02-04T10:20:21;43.37;;;8.87;;
4986;SDS011;12674;51.500;7.552;2023-02-04T10:22:27;41.63;;;8.97;;
4986;SDS011;12674;51.500;7.552;2023-02-04T10:24:30;39.57;;;8.90;;
4986;SDS011;12674;51.500;7.552;2023-02-04T10:26:34;44.20;;;7.43;;
4986;SDS011;12674;51.500;7.552;2023-02-04T10:28:37;35.10;;;7.83;;
4986;SDS011;12674;51.500;7.552;2023-02-04T10:30:42;42.73;;;7.77;;
4986;SDS011;12674;51.500;7.552;2023-02-04T10:32:47;56.37;;;10.50;;
4986;SDS011;12674;51.500;7.552;2023-02-04T10:34:55;52.67;;;8.17;;
4986;SDS011;12674;51.500;7.552;2023-02-04T10:36:58;48.20;;;8.37;;
4986;SDS011;12674;51.500;7.552;2023-02-04T10:39:04;43.37;;;8.33;;
4986;SDS011;12674;51.500;7.552;2023-02-04T10:41:11;45.03;;;7.10;;
4986;SDS011;12674;51.500;7.552;2023-02-04T10:43:16;38.70;;;6.50;;
4986;SDS011;12674;51.500;7.552;2023-02-04T10:45:20;36.33;;;7.53;;
4986;SDS011;12674;51.500;7.552;2023-02-04T10:47:26;32.50;;;7.20;;
4986;SDS011;12674;51.500;7.552;2023-02-04T10:49:35;42.87;;;8.43;;
4986;SDS011;12674;51.500;7.552;2023-02-04T10:51:38;46.30;;;8.33;;
4986;SDS011;12674;51.500;7.552;2023-02-04T10:53:41;34.10;;;7.27;;
4986;SDS011;12674;51.500;7.552;2023-02-04T10:56:03;39.30;;;8.50;;
4986;SDS011;12674;51.500;7.552;2023-02-04T10:58:07;41.20;;;8.20;;
4986;SDS011;12674;51.500;7.552;2023-02-04T11:00:14;31.90;;;6.77;;
4986;SDS011;12674;51.500;7.552;2023-02-04T11:04:38;35.77;;;7.27;;
4986;SDS011;12674;51.500;7.552;2023-02-04T11:06:41;30.47;;;8.37;;
4986;SDS011;12674;51.500;7.552;2023-02-04T11:08:44;32.73;;;7.80;;
4986;SDS011;12674;51.500;7.552;2023-02-04T11:10:48;36.60;;;8.00;;
4986;SDS011;12674;51.500;7.552;2023-02-04T11:13:00;35.30;;;7.50;;
4986;SDS011;12674;51.500;7.552;2023-02-04T11:15:05;35.17;;;7.03;;
4986;SDS011;12674;51.500;7.552;2023-02-04T11:17:18;34.93;;;6.57;;
4986;SDS011;12674;51.500;7.552;2023-02-04T11:19:29;61.00;;;8.43;;
4986;SDS011;12674;51.500;7.552;2023-02-04T11:21:41;34.50;;;7.07;;
4986;SDS011;12674;51.500;7.552;2023-02-04T11:23:46;33.10;;;6.27;;
4986;SDS011;12674;51.500;7.552;2023-02-04T11:25:49;33.03;;;7.97;;
4986;SDS011;12674;51.500;7.552;2023-02-04T11:28:13;36.93;;;6.60;;
4986;SDS011;12674;51.500;7.552;2023-02-04T11:30:18;38.93;;;7.37;;
4986;SDS011;12674;51.500;7.552;2023-02-04T11:32:26;43.70;;;7.93;;
4986;SDS011;12674;51.500;7.552;2023-02-04T11:34:42;28.57;;;7.43;;
4986;SDS011;12674;51.500;7.552;2023-02-04T11:36:54;30.83;;;7.57;;
4986;SDS011;12674;51.500;7.552;2023-02-04T11:39:05;34.93;;;7.80;;
4986;SDS011;12674;51.500;7.552;2023-02-04T11:41:11;43.00;;;8.47;;
4986;SDS011;12674;51.500;7.552;2023-02-04T11:43:18;38.77;;;9.80;;
4986;SDS011;12674;51.500;7.552;2023-02-04T11:45:23;35.40;;;9.13;;
4986;SDS011;12674;51.500;7.552;2023-02-04T11:47:32;44.07;;;10.47;;
4986;SDS011;12674;51.500;7.552;2023-02-04T11:49:37;45.03;;;9.40;;
4986;SDS011;12674;51.500;7.552;2023-02-04T11:51:39;47.37;;;10.40;;
4986;SDS011;12674;51.500;7.552;2023-02-04T11:53:49;43.70;;;11.03;;
4986;SDS011;12674;51.500;7.552;2023-02-04T11:55:52;46.83;;;10.87;;
4986;SDS011;12674;51.500;7.552;2023-02-04T11:57:55;47.90;;;10.43;;
4986;SDS011;12674;51.500;7.552;2023-02-04T12:00:00;38.83;;;10.70;;
4986;SDS011;12674;51.500;7.552;2023-02-04T12:02:05;42.33;;;10.83;;
4986;SDS011;12674;51.500;7.552;2023-02-04T12:04:21;50.57;;;10.70;;
4986;SDS011;12674;51.500;7.552;2023-02-04T12:06:26;40.53;;;11.10;;
4986;SDS011;12674;51.500;7.552;2023-02-04T12:08:31;46.23;;;13.00;;
4986;SDS011;12674;51.500;7.552;2023-02-04T12:10:35;43.47;;;13.50;;
4986;SDS011;12674;51.500;7.552;2023-02-04T12:12:40;45.77;;;12.90;;
4986;SDS011;12674;51.500;7.552;2023-02-04T12:14:44;48.33;;;15.70;;
4986;SDS011;12674;51.500;7.552;2023-02-04T12:16:48;45.97;;;15.13;;
4986;SDS011;12674;51.500;7.552;2023-02-04T12:18:52;54.27;;;15.93;;
4986;SDS011;12674;51.500;7.552;2023-02-04T12:20:55;59.60;;;15.30;;
4986;SDS011;12674;51.500;7.552;2023-02-04T12:22:59;50.03;;;15.83;;
4986;SDS011;12674;51.500;7.552;2023-02-04T12:25:01;60.60;;;17.50;;
4986;SDS011;12674;51.500;7.552;2023-02-04T12:27:04;43.63;;;16.27;;
4986;SDS011;12674;51.500;7.552;2023-02-04T12:29:07;48.40;;;15.70;;
4986;SDS011;12674;51.500;7.552;2023-02-04T12:31:10;42.80;;;16.10;;